Time;durP1;ratioP1;P1;durP2;ratioP2;P2;SDS_P1;SDS_P2;PMS_P1;PMS_P2;Temp;Humidity;BMP_temperature;BMP_pressure;BME280_temperature;BME280_humidity;BME280_pressure;Samples;Min_cycle;Max_cycle;Signal;HPM_P1;HPM_P2
2023/08/28 00:02:02;;;;;;;9.23;8.27;;;;;;;;;;5033218;28;20028;-68
2023/08/28 00:04:27;;;;;;;10.10;7.70;;;;;;;;;;5033411;28;20526;-71
2023/08/28 00:06:53;;;;;;;8.50;7.60;;;;;;;;;;5033844;28;20113;-71
2023/08/28 00:09:18;;;;;;;10.65;7.43;;;;;;;;;;5033633;28;20111;-72
2023/08/28 00:11:44;;;;;;;8.55;7.25;;;;;;;;;;5033489;28;20037;-75
2023/08/28 00:14:09;;;;;;;7.03;6.35;;;;;;;;;;5033791;28;20069;-74
2023/08/28 00:16:35;;;;;;;6.43;5.72;;;;;;;;;;5033276;28;20116;-69
2023/08/28 00:19:00;;;;;;;4.10;3.75;;;;;;;;;;4999407;28;20036;-66
2023/08/28 00:21:26;;;;;;;3.35;3.15;;;;;;;;;;5033334;28;20112;-67
2023/08/28 00:23:51;;;;;;;2.85;2.65;;;;;;;;;;5035147;28;20061;-66
2023/08/28 00:26:16;;;;;;;2.92;2.72;;;;;;;;;;5019378;28;20025;-65
2023/08/28 00:28:42;;;;;;;2.53;2.42;;;;;;;;;;5037083;28;20026;-72
2023/08/28 00:31:07;;;;;;;2.85;2.58;;;;;;;;;;5037117;28;20444;-66
2023/08/28 00:33:32;;;;;;;2.08;1.98;;;;;;;;;;5019277;28;20392;-66
2023/08/28 00:35:58;;;;;;;1.80;1.70;;;;;;;;;;5019025;28;20033;-66
2023/08/28 00:38:23;;;;;;;2.33;2.13;;;;;;;;;;5018945;28;20025;-66
2023/08/28 00:40:48;;;;;;;1.00;0.90;;;;;;;;;;5019067;28;20343;-67
2023/08/28 00:43:15;;;;;;;1.10;1.10;;;;;;;;;;5018748;28;20013;-73
2023/08/28 00:45:41;;;;;;;0.80;0.80;;;;;;;;;;5036631;28;20048;-75
2023/08/28 00:48:08;;;;;;;1.17;1.17;;;;;;;;;;5019015;28;20096;-68
2023/08/28 00:50:33;;;;;;;0.60;0.60;;;;;;;;;;5019140;28;20026;-66
2023/08/28 00:52:59;;;;;;;0.85;0.85;;;;;;;;;;5036925;28;20097;-66
2023/08/28 00:55:24;;;;;;;1.05;1.05;;;;;;;;;;5036691;28;20037;-66
2023/08/28 00:57:52;;;;;;;1.80;1.70;;;;;;;;;;5036135;28;20025;-67
2023/08/28 01:00:18;;;;;;;1.52;1.42;;;;;;;;;;5018363;28;20029;-66
2023/08/28 01:02:44;;;;;;;1.55;1.27;;;;;;;;;;5018451;28;20029;-63
2023/08/28 01:05:10;;;;;;;1.20;1.15;;;;;;;;;;5036212;28;20465;-63
2023/08/28 01:07:46;;;;;;;1.45;1.35;;;;;;;;;;5036449;28;20034;-62
2023/08/28 01:10:15;;;;;;;2.28;1.20;;;;;;;;;;5036449;28;20196;-66
2023/08/28 01:12:47;;;;;;;0.75;0.65;;;;;;;;;;5018630;28;20029;-65
2023/08/28 01:15:17;;;;;;;0.55;0.40;;;;;;;;;;5018511;28;20033;-65
2023/08/28 01:17:43;;;;;;;0.40;0.40;;;;;;;;;;5036271;28;20539;-66
2023/08/28 01:20:13;;;;;;;0.50;0.50;;;;;;;;;;5017742;28;20030;-62
2023/08/28 01:22:42;;;;;;;1.00;0.93;;;;;;;;;;5017747;28;20025;-65
2023/08/28 01:25:10;;;;;;;0.30;0.30;;;;;;;;;;5022746;28;20094;-66
2023/08/28 01:27:38;;;;;;;1.10;1.00;;;;;;;;;;5018480;28;20024;-64
2023/08/28 01:30:08;;;;;;;1.55;1.48;;;;;;;;;;5037669;28;20049;-72
2023/08/28 01:32:34;;;;;;;0.77;0.77;;;;;;;;;;5037890;28;20028;-72
2023/08/28 01:35:00;;;;;;;0.90;0.90;;;;;;;;;;5055331;28;20388;-64
2023/08/28 01:37:29;;;;;;;0.68;0.68;;;;;;;;;;5038083;28;20040;-72
2023/08/28 01:39:57;;;;;;;0.55;0.45;;;;;;;;;;5055500;28;20075;-72
2023/08/28 01:42:23;;;;;;;1.20;0.88;;;;;;;;;;5055755;28;20453;-72
2023/08/28 01:44:54;;;;;;;0.95;0.88;;;;;;;;;;5038257;28;20032;-72
2023/08/28 01:47:21;;;;;;;1.00;1.00;;;;;;;;;;5055403;28;20472;-72
2023/08/28 01:49:46;;;;;;;1.10;1.10;;;;;;;;;;5037382;28;20021;-72
2023/08/28 01:52:12;;;;;;;1.00;0.50;;;;;;;;;;5037366;28;20388;-71
2023/08/28 01:54:38;;;;;;;0.50;0.47;;;;;;;;;;5038019;28;20487;-71
2023/08/28 01:57:03;;;;;;;0.90;0.40;;;;;;;;;;5055279;28;20104;-71
2023/08/28 01:59:29;;;;;;;0.85;0.82;;;;;;;;;;5037651;28;20142;-71
2023/08/28 02:01:54;;;;;;;1.00;0.68;;;;;;;;;;5037324;28;20040;-73
2023/08/28 02:04:20;;;;;;;0.40;0.40;;;;;;;;;;5037633;28;20029;-73
2023/08/28 02:06:45;;;;;;;0.60;0.52;;;;;;;;;;5055170;28;20044;-73
2023/08/28 02:09:11;;;;;;;1.10;0.80;;;;;;;;;;5036712;28;20017;-73
2023/08/28 02:11:36;;;;;;;0.45;0.45;;;;;;;;;;5037436;28;20041;-73
2023/08/28 02:14:03;;;;;;;1.45;0.50;;;;;;;;;;5020486;28;20213;-73
2023/08/28 02:16:29;;;;;;;0.88;0.88;;;;;;;;;;5037100;28;20035;-72
2023/08/28 02:18:54;;;;;;;0.50;0.50;;;;;;;;;;5036829;28;20028;-72
2023/08/28 02:21:20;;;;;;;0.40;0.40;;;;;;;;;;5036900;28;20056;-74
2023/08/28 02:23:45;;;;;;;0.40;0.40;;;;;;;;;;5036952;28;20029;-72
2023/08/28 02:26:10;;;;;;;0.65;0.60;;;;;;;;;;5037180;28;20364;-72
2023/08/28 02:28:36;;;;;;;0.40;0.40;;;;;;;;;;5020221;28;20380;-73
2023/08/28 02:31:04;;;;;;;0.73;0.50;;;;;;;;;;5037088;28;20063;-73
2023/08/28 02:33:31;;;;;;;0.70;0.60;;;;;;;;;;5054767;28;20098;-74
2023/08/28 02:35:59;;;;;;;0.70;0.70;;;;;;;;;;5037041;28;20071;-74
2023/08/28 02:38:24;;;;;;;1.48;0.63;;;;;;;;;;5054347;28;20029;-72
2023/08/28 02:40:49;;;;;;;0.55;0.55;;;;;;;;;;5036290;28;20451;-73
2023/08/28 02:43:15;;;;;;;0.50;0.50;;;;;;;;;;5020328;28;20349;-72
2023/08/28 02:45:41;;;;;;;0.50;0.50;;;;;;;;;;5036253;28;20025;-72
2023/08/28 02:48:08;;;;;;;1.05;0.80;;;;;;;;;;5036642;28;20025;-71
2023/08/28 02:50:34;;;;;;;0.60;0.60;;;;;;;;;;5054542;28;20116;-72
2023/08/28 02:53:00;;;;;;;0.40;0.40;;;;;;;;;;5020082;28;20060;-73
2023/08/28 02:55:26;;;;;;;0.50;0.50;;;;;;;;;;5037012;28;20036;-71
2023/08/28 02:57:52;;;;;;;1.00;0.90;;;;;;;;;;5054440;28;20029;-71
2023/08/28 03:00:18;;;;;;;0.65;0.65;;;;;;;;;;5036054;28;20049;-71
2023/08/28 03:02:44;;;;;;;0.93;0.75;;;;;;;;;;5054314;28;20025;-71
2023/08/28 03:05:09;;;;;;;0.82;0.82;;;;;;;;;;5054121;28;20029;-73
2023/08/28 03:07:34;;;;;;;0.68;0.68;;;;;;;;;;5035950;28;20020;-73
2023/08/28 03:10:00;;;;;;;0.70;0.70;;;;;;;;;;5036206;28;20445;-72
2023/08/28 03:12:25;;;;;;;0.60;0.60;;;;;;;;;;5053538;28;20021;-74
2023/08/28 03:14:50;;;;;;;0.57;0.57;;;;;;;;;;5036379;28;20032;-72
2023/08/28 03:17:16;;;;;;;0.60;0.60;;;;;;;;;;5019965;28;20354;-73
2023/08/28 03:19:41;;;;;;;0.70;0.70;;;;;;;;;;5036315;28;20533;-74
2023/08/28 03:22:09;;;;;;;1.20;0.70;;;;;;;;;;5035968;28;20166;-64
2023/08/28 03:24:34;;;;;;;0.73;0.70;;;;;;;;;;5036042;28;20096;-64
2023/08/28 03:27:01;;;;;;;0.50;0.50;;;;;;;;;;5019886;28;20021;-64
2023/08/28 03:29:26;;;;;;;1.08;0.63;;;;;;;;;;5019344;28;20049;-72
2023/08/28 03:31:51;;;;;;;0.77;0.77;;;;;;;;;;5053648;28;20021;-72
2023/08/28 03:34:17;;;;;;;0.65;0.65;;;;;;;;;;5053628;28;20051;-72
2023/08/28 03:36:42;;;;;;;0.50;0.50;;;;;;;;;;5036091;28;20502;-71
2023/08/28 03:39:08;;;;;;;0.70;0.65;;;;;;;;;;5035939;28;20036;-72
2023/08/28 03:41:33;;;;;;;0.70;0.70;;;;;;;;;;5036039;28;20024;-72
2023/08/28 03:43:59;;;;;;;0.50;0.50;;;;;;;;;;5053499;28;20472;-72
2023/08/28 03:46:24;;;;;;;0.60;0.60;;;;;;;;;;5035806;28;20029;-72
2023/08/28 03:48:50;;;;;;;0.80;0.80;;;;;;;;;;5035702;28;20025;-73
2023/08/28 03:51:15;;;;;;;0.80;0.77;;;;;;;;;;5053270;28;20469;-73
2023/08/28 03:53:41;;;;;;;1.02;0.80;;;;;;;;;;5035779;28;20063;-73
2023/08/28 03:56:06;;;;;;;0.60;0.60;;;;;;;;;;5035258;28;20388;-73
2023/08/28 03:58:31;;;;;;;0.77;0.70;;;;;;;;;;5038437;28;20032;-74
2023/08/28 04:00:57;;;;;;;0.90;0.77;;;;;;;;;;5023181;28;20021;-73
2023/08/28 04:03:23;;;;;;;1.40;0.80;;;;;;;;;;5057869;28;20051;-74
2023/08/28 04:05:49;;;;;;;0.52;0.52;;;;;;;;;;5039553;28;20029;-74
2023/08/28 04:08:15;;;;;;;0.70;0.70;;;;;;;;;;5057470;28;20025;-72
2023/08/28 04:10:40;;;;;;;1.60;0.93;;;;;;;;;;5039569;28;20480;-71
2023/08/28 04:13:06;;;;;;;19.63;1.27;;;;;;;;;;5057127;28;20035;-73
2023/08/28 04:15:31;;;;;;;0.80;0.80;;;;;;;;;;5039019;28;20037;-73
2023/08/28 04:18:01;;;;;;;1.92;0.90;;;;;;;;;;5039556;28;20071;-73
2023/08/28 04:20:26;;;;;;;0.85;0.85;;;;;;;;;;5057330;28;20078;-73
2023/08/28 04:22:53;;;;;;;0.93;0.80;;;;;;;;;;5039723;28;20091;-74
2023/08/28 04:25:18;;;;;;;1.33;0.75;;;;;;;;;;5056995;28;20468;-76
2023/08/28 04:27:43;;;;;;;0.60;0.60;;;;;;;;;;5039131;28;20415;-75
2023/08/28 04:30:09;;;;;;;1.27;0.70;;;;;;;;;;5038976;28;20095;-75
2023/08/28 04:32:35;;;;;;;0.88;0.68;;;;;;;;;;5021870;28;20166;-77
2023/08/28 04:35:01;;;;;;;0.85;0.85;;;;;;;;;;5056663;28;20021;-75
2023/08/28 04:37:26;;;;;;;0.77;0.70;;;;;;;;;;5057282;28;20472;-75
2023/08/28 04:39:52;;;;;;;0.85;0.70;;;;;;;;;;5038905;28;20037;-75
2023/08/28 04:42:17;;;;;;;0.65;0.65;;;;;;;;;;5022300;28;20025;-75
2023/08/28 04:44:44;;;;;;;0.95;0.70;;;;;;;;;;5038642;28;20029;-75
2023/08/28 04:47:09;;;;;;;0.77;0.77;;;;;;;;;;5056712;28;20056;-77
2023/08/28 04:49:35;;;;;;;0.80;0.80;;;;;;;;;;5038511;28;20086;-74
2023/08/28 04:52:02;;;;;;;0.70;0.70;;;;;;;;;;5038735;28;20068;-74
2023/08/28 04:54:27;;;;;;;2.28;0.77;;;;;;;;;;5022126;28;20028;-76
2023/08/28 04:56:52;;;;;;;1.15;0.80;;;;;;;;;;5056689;28;20163;-76
2023/08/28 04:59:18;;;;;;;0.68;0.68;;;;;;;;;;5056076;28;20468;-76
2023/08/28 05:01:43;;;;;;;0.90;0.90;;;;;;;;;;5056077;28;20037;-75
2023/08/28 05:04:10;;;;;;;0.90;0.90;;;;;;;;;;5056150;28;20029;-76
2023/08/28 05:06:35;;;;;;;0.90;0.90;;;;;;;;;;5038408;28;20067;-76
2023/08/28 05:09:01;;;;;;;1.10;0.70;;;;;;;;;;5055720;28;20025;-75
2023/08/28 05:11:26;;;;;;;1.10;0.98;;;;;;;;;;5037959;28;20033;-73
2023/08/28 05:13:52;;;;;;;1.38;1.05;;;;;;;;;;5038177;28;20469;-73
2023/08/28 05:16:17;;;;;;;0.80;0.80;;;;;;;;;;5038534;28;20028;-73
2023/08/28 05:18:43;;;;;;;1.92;0.98;;;;;;;;;;5055989;28;20028;-73
2023/08/28 05:21:08;;;;;;;3.10;0.95;;;;;;;;;;5055920;28;20025;-73
2023/08/28 05:23:34;;;;;;;0.80;0.80;;;;;;;;;;5055867;28;20359;-72
2023/08/28 05:25:59;;;;;;;1.65;0.90;;;;;;;;;;5038290;28;20508;-68
2023/08/28 05:28:35;;;;;;;2.63;0.90;;;;;;;;;;5037430;28;20029;-71
2023/08/28 05:31:01;;;;;;;1.30;1.00;;;;;;;;;;5055313;28;20492;-65
2023/08/28 05:33:26;;;;;;;1.58;0.80;;;;;;;;;;5055944;28;20029;-73
2023/08/28 05:35:52;;;;;;;0.98;0.90;;;;;;;;;;5055655;28;20033;-73
2023/08/28 05:38:17;;;;;;;2.00;0.90;;;;;;;;;;5037850;28;20369;-66
2023/08/28 05:40:43;;;;;;;3.80;1.10;;;;;;;;;;5055648;28;20456;-66
2023/08/28 05:43:08;;;;;;;2.08;1.00;;;;;;;;;;5038085;28;20174;-66
2023/08/28 05:45:34;;;;;;;2.97;0.93;;;;;;;;;;5037730;28;20033;-66
2023/08/28 05:47:59;;;;;;;1.05;1.05;;;;;;;;;;5037704;28;20033;-65
2023/08/28 05:50:25;;;;;;;0.80;0.80;;;;;;;;;;5037451;28;20032;-65
2023/08/28 05:52:52;;;;;;;0.90;0.88;;;;;;;;;;5037315;28;20054;-65
2023/08/28 05:55:18;;;;;;;3.45;0.95;;;;;;;;;;5025702;28;20021;-65
2023/08/28 05:57:44;;;;;;;2.03;0.90;;;;;;;;;;5017744;28;20026;-65
2023/08/28 06:00:13;;;;;;;1.33;0.95;;;;;;;;;;5032265;28;20032;-65
2023/08/28 06:02:41;;;;;;;1.02;0.98;;;;;;;;;;5032001;28;20033;-65
2023/08/28 06:05:07;;;;;;;1.33;1.10;;;;;;;;;;5031663;28;20095;-64
2023/08/28 06:07:33;;;;;;;1.17;0.93;;;;;;;;;;5032828;28;20424;-66
2023/08/28 06:09:58;;;;;;;1.10;1.10;;;;;;;;;;5032073;28;20061;-65
2023/08/28 06:12:24;;;;;;;1.38;1.27;;;;;;;;;;5031187;28;20036;-65
2023/08/28 06:14:50;;;;;;;1.17;1.08;;;;;;;;;;5032755;28;20429;-69
2023/08/28 06:17:17;;;;;;;1.55;0.88;;;;;;;;;;5032216;28;20492;-69
2023/08/28 06:19:42;;;;;;;1.30;0.90;;;;;;;;;;5015875;28;20052;-69
2023/08/28 06:22:08;;;;;;;1.20;1.00;;;;;;;;;;5015108;28;20060;-69
2023/08/28 06:24:33;;;;;;;1.00;1.00;;;;;;;;;;5015754;28;20036;-67
2023/08/28 06:26:59;;;;;;;1.02;0.93;;;;;;;;;;5014963;28;20026;-67
2023/08/28 06:29:24;;;;;;;1.15;1.08;;;;;;;;;;5031836;28;20042;-70
2023/08/28 06:31:50;;;;;;;1.33;1.23;;;;;;;;;;5031897;28;20091;-69
2023/08/28 06:34:15;;;;;;;1.10;1.10;;;;;;;;;;5033276;28;20100;-69
2023/08/28 06:36:41;;;;;;;1.17;1.10;;;;;;;;;;5033248;28;20098;-69
2023/08/28 06:39:07;;;;;;;1.05;1.05;;;;;;;;;;5033208;28;20036;-68
2023/08/28 06:41:32;;;;;;;1.63;1.23;;;;;;;;;;5014945;28;20026;-69
2023/08/28 06:44:04;;;;;;;1.27;1.17;;;;;;;;;;5031876;28;20034;-69
2023/08/28 06:46:30;;;;;;;1.35;1.25;;;;;;;;;;5033102;28;20036;-69
2023/08/28 06:48:55;;;;;;;1.38;1.27;;;;;;;;;;5033036;28;20018;-69
2023/08/28 06:51:21;;;;;;;1.58;1.48;;;;;;;;;;5033062;28;20036;-69
2023/08/28 06:53:48;;;;;;;1.92;1.30;;;;;;;;;;5032684;28;20063;-69
2023/08/28 06:56:13;;;;;;;1.55;1.45;;;;;;;;;;5032832;28;20565;-69
2023/08/28 06:58:39;;;;;;;1.63;1.52;;;;;;;;;;5032974;28;20100;-69
2023/08/28 07:01:04;;;;;;;2.70;1.67;;;;;;;;;;5032738;28;20436;-69
2023/08/28 07:03:30;;;;;;;1.90;1.80;;;;;;;;;;5032810;28;20101;-68
2023/08/28 07:05:55;;;;;;;2.17;2.08;;;;;;;;;;5031340;28;20052;-68
2023/08/28 07:08:21;;;;;;;2.05;1.92;;;;;;;;;;5031002;28;20472;-68
2023/08/28 07:10:47;;;;;;;2.00;1.85;;;;;;;;;;5032649;28;20037;-68
2023/08/28 07:13:12;;;;;;;5.22;2.33;;;;;;;;;;5032771;28;20033;-69
2023/08/28 07:15:40;;;;;;;3.92;2.55;;;;;;;;;;5032967;28;20400;-69
2023/08/28 07:18:06;;;;;;;5.07;2.50;;;;;;;;;;5033653;28;20395;-69
2023/08/28 07:20:31;;;;;;;4.20;2.40;;;;;;;;;;5033510;28;20121;-61
2023/08/28 07:22:57;;;;;;;2.90;2.15;;;;;;;;;;5031556;28;20030;-70
2023/08/28 07:25:22;;;;;;;3.50;2.05;;;;;;;;;;5033467;28;20026;-69
2023/08/28 07:27:48;;;;;;;2.60;2.40;;;;;;;;;;5033189;28;20055;-69
2023/08/28 07:30:14;;;;;;;2.92;2.30;;;;;;;;;;5032886;28;20125;-68
2023/08/28 07:32:39;;;;;;;4.00;2.28;;;;;;;;;;5031866;28;20029;-68
2023/08/28 07:35:05;;;;;;;2.25;2.05;;;;;;;;;;5031647;28;20033;-68
2023/08/28 07:37:33;;;;;;;2.55;2.28;;;;;;;;;;5032741;28;20028;-67
2023/08/28 07:39:58;;;;;;;2.70;2.00;;;;;;;;;;5032899;28;20104;-67
2023/08/28 07:42:24;;;;;;;2.13;1.90;;;;;;;;;;5032749;28;20643;-67
2023/08/28 07:44:49;;;;;;;2.30;1.85;;;;;;;;;;5032662;28;20112;-67
2023/08/28 07:47:15;;;;;;;6.20;2.20;;;;;;;;;;5032589;28;20021;-67
2023/08/28 07:49:41;;;;;;;2.67;1.85;;;;;;;;;;5015119;28;20076;-67
2023/08/28 07:52:06;;;;;;;2.05;1.95;;;;;;;;;;5032616;28;20033;-66
2023/08/28 07:54:32;;;;;;;1.95;1.85;;;;;;;;;;5032994;28;20029;-67
2023/08/28 07:56:57;;;;;;;2.13;1.98;;;;;;;;;;5033123;28;20032;-66
2023/08/28 07:59:23;;;;;;;2.20;2.00;;;;;;;;;;5032565;28;20099;-66
2023/08/28 08:01:48;;;;;;;3.25;2.20;;;;;;;;;;5031348;28;20347;-66
2023/08/28 08:04:13;;;;;;;3.83;1.90;;;;;;;;;;5031163;28;20092;-67
2023/08/28 08:06:39;;;;;;;2.20;2.00;;;;;;;;;;5032652;28;20120;-67
2023/08/28 08:09:04;;;;;;;1.80;1.70;;;;;;;;;;5032697;28;20025;-67
2023/08/28 08:11:29;;;;;;;1.77;1.63;;;;;;;;;;5032659;28;20053;-66
2023/08/28 08:13:55;;;;;;;1.80;1.70;;;;;;;;;;5031820;28;20029;-67
2023/08/28 08:16:20;;;;;;;2.10;2.00;;;;;;;;;;5032990;28;20057;-67
2023/08/28 08:18:46;;;;;;;2.22;2.13;;;;;;;;;;5033006;28;20381;-67
2023/08/28 08:21:11;;;;;;;1.63;1.52;;;;;;;;;;5033384;28;20022;-66
2023/08/28 08:23:36;;;;;;;2.60;2.15;;;;;;;;;;5033505;28;20033;-67
2023/08/28 08:26:03;;;;;;;2.38;2.17;;;;;;;;;;5033376;28;20107;-67
2023/08/28 08:28:30;;;;;;;2.85;1.95;;;;;;;;;;5032449;28;20530;-67
2023/08/28 08:30:55;;;;;;;2.00;1.90;;;;;;;;;;5033243;28;20045;-66
2023/08/28 08:33:21;;;;;;;3.15;1.90;;;;;;;;;;5033311;28;20392;-67
2023/08/28 08:35:46;;;;;;;1.83;1.73;;;;;;;;;;5033441;28;20457;-67
2023/08/28 08:38:12;;;;;;;2.20;2.00;;;;;;;;;;5032983;28;20120;-66
2023/08/28 08:40:39;;;;;;;2.28;1.75;;;;;;;;;;5033122;28;20040;-66
2023/08/28 08:43:04;;;;;;;1.60;1.50;;;;;;;;;;5031696;28;20038;-66
2023/08/28 08:45:30;;;;;;;2.00;1.85;;;;;;;;;;5035005;28;20083;-66
2023/08/28 08:47:59;;;;;;;1.70;1.60;;;;;;;;;;5035944;28;20014;-66
2023/08/28 08:50:26;;;;;;;2.10;1.90;;;;;;;;;;5035380;28;20026;-66
2023/08/28 08:52:51;;;;;;;1.60;1.50;;;;;;;;;;5035213;28;20025;-65
2023/08/28 08:55:16;;;;;;;1.77;1.67;;;;;;;;;;5034401;28;20381;-65
2023/08/28 08:57:43;;;;;;;1.65;1.55;;;;;;;;;;5033100;28;20052;-65
2023/08/28 09:00:14;;;;;;;1.95;1.85;;;;;;;;;;5033913;28;20084;-65
2023/08/28 09:02:40;;;;;;;1.83;1.73;;;;;;;;;;5033490;28;20444;-65
2023/08/28 09:05:06;;;;;;;2.10;2.00;;;;;;;;;;5035415;28;20105;-65
2023/08/28 09:07:32;;;;;;;2.00;1.90;;;;;;;;;;5036034;28;20449;-65
2023/08/28 09:09:57;;;;;;;2.25;1.88;;;;;;;;;;5034819;28;20483;-65
2023/08/28 09:12:23;;;;;;;2.08;1.95;;;;;;;;;;5035971;28;20412;-65
2023/08/28 09:14:48;;;;;;;2.30;2.00;;;;;;;;;;5036025;28;20064;-65
2023/08/28 09:17:13;;;;;;;2.33;2.13;;;;;;;;;;5035861;28;20439;-65
2023/08/28 09:19:39;;;;;;;2.35;2.13;;;;;;;;;;5035897;28;20029;-65
2023/08/28 09:22:04;;;;;;;2.65;2.45;;;;;;;;;;5035860;28;20041;-65
2023/08/28 09:24:29;;;;;;;2.40;2.10;;;;;;;;;;5035677;28;20029;-65
2023/08/28 09:26:55;;;;;;;2.33;2.13;;;;;;;;;;5035652;28;20027;-65
2023/08/28 09:29:26;;;;;;;2.47;2.38;;;;;;;;;;5035569;28;20393;-65
2023/08/28 09:31:59;;;;;;;2.00;1.90;;;;;;;;;;5017930;28;20030;-65
2023/08/28 09:34:34;;;;;;;2.20;2.10;;;;;;;;;;5035590;28;20033;-65
2023/08/28 09:37:00;;;;;;;2.13;1.85;;;;;;;;;;5035421;28;20068;-65
2023/08/28 09:39:25;;;;;;;2.05;1.95;;;;;;;;;;5035390;28;20069;-64
2023/08/28 09:41:51;;;;;;;2.15;2.03;;;;;;;;;;5035574;28;20041;-65
2023/08/28 09:44:17;;;;;;;2.30;2.20;;;;;;;;;;5035358;28;20072;-65
2023/08/28 09:46:43;;;;;;;2.92;2.05;;;;;;;;;;5035549;28;20033;-64
2023/08/28 09:49:13;;;;;;;2.30;2.20;;;;;;;;;;5035508;28;20030;-65
2023/08/28 09:51:42;;;;;;;2.40;2.30;;;;;;;;;;5035291;28;20033;-65
2023/08/28 09:54:09;;;;;;;2.72;2.53;;;;;;;;;;5033878;28;20029;-65
2023/08/28 09:56:34;;;;;;;4.80;2.90;;;;;;;;;;5034985;28;20033;-65
2023/08/28 09:59:13;;;;;;;2.83;2.63;;;;;;;;;;5035080;28;20393;-65
2023/08/28 10:01:38;;;;;;;4.47;2.60;;;;;;;;;;5034952;28;20030;-65
2023/08/28 10:04:09;;;;;;;2.58;2.47;;;;;;;;;;5034921;28;20038;-65
2023/08/28 10:06:38;;;;;;;4.68;2.97;;;;;;;;;;5032955;28;20029;-64
2023/08/28 10:09:08;;;;;;;3.20;2.90;;;;;;;;;;5024548;28;20454;-65
2023/08/28 10:11:37;;;;;;;3.90;2.60;;;;;;;;;;5015102;28;20105;-65
2023/08/28 10:14:04;;;;;;;2.60;2.42;;;;;;;;;;5014981;28;20034;-65
2023/08/28 10:16:30;;;;;;;2.80;2.60;;;;;;;;;;4997893;28;20052;-65
2023/08/28 10:22:02;;;;;;;2.72;2.53;;;;;;;;;;4955621;29;20058;-70
2023/08/28 10:24:30;;;;;;;2.30;2.20;;;;;;;;;;4955350;29;20033;-65
2023/08/28 10:26:56;;;;;;;3.63;2.92;;;;;;;;;;5039354;23;20141;-66
2023/08/28 10:29:22;;;;;;;3.10;2.90;;;;;;;;;;5026969;23;20147;-70
2023/08/28 10:31:48;;;;;;;3.42;2.75;;;;;;;;;;5026821;23;20093;-67
2023/08/28 10:34:15;;;;;;;2.72;2.60;;;;;;;;;;5044682;23;20068;-70
2023/08/28 10:36:41;;;;;;;2.55;2.35;;;;;;;;;;5044067;23;20501;-70
2023/08/28 10:39:08;;;;;;;2.90;2.58;;;;;;;;;;5034038;28;20033;-70
2023/08/28 10:41:34;;;;;;;2.50;2.40;;;;;;;;;;5034581;28;20037;-66
2023/08/28 10:44:00;;;;;;;2.70;2.42;;;;;;;;;;5016341;23;20109;-70
2023/08/28 10:46:28;;;;;;;2.50;2.40;;;;;;;;;;5025288;23;20064;-66
2023/08/28 10:48:57;;;;;;;2.70;2.50;;;;;;;;;;5029803;28;20211;-70
2023/08/28 10:51:28;;;;;;;4.65;2.03;;;;;;;;;;5027224;28;20038;-70
2023/08/28 10:53:54;;;;;;;2.50;2.40;;;;;;;;;;5015798;28;20040;-71
2023/08/28 10:56:20;;;;;;;2.95;2.63;;;;;;;;;;5005282;28;20034;-71
2023/08/28 10:58:45;;;;;;;2.53;2.33;;;;;;;;;;5013968;28;20069;-71
2023/08/28 11:01:13;;;;;;;2.35;2.25;;;;;;;;;;5002236;28;20057;-71
2023/08/28 11:03:50;;;;;;;2.90;2.70;;;;;;;;;;5021763;28;20100;-71
2023/08/28 11:06:34;;;;;;;2.67;2.58;;;;;;;;;;5020935;28;20032;-70
2023/08/28 11:09:19;;;;;;;2.53;2.33;;;;;;;;;;4993193;28;20063;-70
2023/08/28 11:11:44;;;;;;;2.90;2.70;;;;;;;;;;5011304;28;20033;-70
2023/08/28 11:14:13;;;;;;;2.50;2.40;;;;;;;;;;5013093;28;20038;-71
2023/08/28 11:16:39;;;;;;;2.35;2.22;;;;;;;;;;5014273;28;20054;-70
2023/08/28 11:19:05;;;;;;;2.53;2.17;;;;;;;;;;4996352;28;20034;-73
2023/08/28 11:21:39;;;;;;;2.38;2.17;;;;;;;;;;5013872;28;20499;-73
2023/08/28 11:24:16;;;;;;;2.25;2.15;;;;;;;;;;5014205;28;20034;-73
2023/08/28 11:26:44;;;;;;;2.40;2.30;;;;;;;;;;5013852;28;20037;-73
2023/08/28 11:29:24;;;;;;;2.50;2.30;;;;;;;;;;5014107;28;20072;-74
2023/08/28 11:31:50;;;;;;;;;;;;;;;;;;4996941;28;20041;-74
2023/08/28 11:34:15;;;;;;;2.77;2.10;;;;;;;;;;5013842;28;20276;-74
2023/08/28 11:36:40;;;;;;;2.25;2.15;;;;;;;;;;4996145;28;20273;-74
2023/08/28 11:39:06;;;;;;;3.15;2.63;;;;;;;;;;5014051;28;20492;-74
2023/08/28 11:41:31;;;;;;;2.60;2.40;;;;;;;;;;4996209;28;20029;-74
2023/08/28 11:43:56;;;;;;;10.73;2.63;;;;;;;;;;5013724;28;20094;-74
2023/08/28 11:46:24;;;;;;;2.72;2.58;;;;;;;;;;5013714;28;20077;-73
2023/08/28 11:48:49;;;;;;;3.90;2.72;;;;;;;;;;5013535;28;20026;-74
2023/08/28 11:51:15;;;;;;;2.42;2.33;;;;;;;;;;5013635;28;20083;-74
2023/08/28 11:53:41;;;;;;;2.97;2.70;;;;;;;;;;5013895;28;20109;-74
2023/08/28 11:56:11;;;;;;;3.03;2.70;;;;;;;;;;5013420;28;20488;-74
2023/08/28 11:58:38;;;;;;;3.35;3.03;;;;;;;;;;5013576;28;20037;-74
2023/08/28 12:01:12;;;;;;;9.40;3.90;;;;;;;;;;4995803;28;20124;-74
2023/08/28 12:03:38;;;;;;;7.80;2.80;;;;;;;;;;4995924;28;20057;-74
2023/08/28 12:06:06;;;;;;;3.15;2.95;;;;;;;;;;4979708;28;20450;-74
2023/08/28 12:08:32;;;;;;;3.45;3.25;;;;;;;;;;4996065;28;20045;-72
2023/08/28 12:10:58;;;;;;;3.55;3.10;;;;;;;;;;5012772;28;20096;-71
2023/08/28 12:13:23;;;;;;;3.20;3.00;;;;;;;;;;5012519;28;20470;-71
2023/08/28 12:15:48;;;;;;;3.42;3.13;;;;;;;;;;4995274;28;20544;-71
2023/08/28 12:18:14;;;;;;;3.70;3.50;;;;;;;;;;5012405;28;20033;-71
2023/08/28 12:20:39;;;;;;;4.30;4.03;;;;;;;;;;5015217;28;20068;-71
2023/08/28 12:23:04;;;;;;;3.75;3.45;;;;;;;;;;4998422;28;20037;-71
2023/08/28 12:25:34;;;;;;;3.85;3.65;;;;;;;;;;5015997;28;20079;-71
2023/08/28 12:28:03;;;;;;;3.93;3.73;;;;;;;;;;5016250;28;20026;-71
2023/08/28 12:30:28;;;;;;;4.30;4.00;;;;;;;;;;5015943;28;20724;-71
2023/08/28 12:32:54;;;;;;;4.07;3.85;;;;;;;;;;5015851;28;20089;-71
2023/08/28 12:35:20;;;;;;;4.90;4.60;;;;;;;;;;5015818;28;20058;-71
2023/08/28 12:37:50;;;;;;;4.60;4.40;;;;;;;;;;5015724;28;20096;-71
2023/08/28 12:40:15;;;;;;;4.78;4.47;;;;;;;;;;5015700;28;20454;-71
2023/08/28 12:42:41;;;;;;;5.38;4.88;;;;;;;;;;4998156;28;20029;-71
2023/08/28 12:45:06;;;;;;;5.50;4.82;;;;;;;;;;4998389;28;20428;-71
2023/08/28 12:47:31;;;;;;;5.00;4.60;;;;;;;;;;5017210;28;20462;-71
2023/08/28 12:49:57;;;;;;;4.35;4.05;;;;;;;;;;5016915;28;20022;-71
2023/08/28 12:52:22;;;;;;;5.57;4.28;;;;;;;;;;4999117;28;20034;-71
2023/08/28 12:54:47;;;;;;;4.53;4.22;;;;;;;;;;5016815;28;20385;-71
2023/08/28 12:57:13;;;;;;;4.50;4.10;;;;;;;;;;4998918;28;20127;-71
2023/08/28 12:59:38;;;;;;;6.05;3.92;;;;;;;;;;5016466;28;20057;-71
2023/08/28 13:02:03;;;;;;;4.15;3.95;;;;;;;;;;5016604;28;20488;-71
2023/08/28 13:04:29;;;;;;;4.70;4.28;;;;;;;;;;4999053;28;20018;-71
2023/08/28 13:06:54;;;;;;;4.30;4.00;;;;;;;;;;4998779;28;20081;-71
2023/08/28 13:09:23;;;;;;;4.50;4.20;;;;;;;;;;4999050;28;20378;-71
2023/08/28 13:11:49;;;;;;;5.00;4.53;;;;;;;;;;5016215;28;20030;-71
2023/08/28 13:14:15;;;;;;;4.93;4.43;;;;;;;;;;4998844;28;20485;-71
2023/08/28 13:16:40;;;;;;;4.05;3.80;;;;;;;;;;5016383;28;20034;-70
2023/08/28 13:19:11;;;;;;;3.88;3.67;;;;;;;;;;5016324;28;20022;-73
2023/08/28 13:21:37;;;;;;;3.92;3.65;;;;;;;;;;5015954;28;20034;-73
2023/08/28 13:24:03;;;;;;;3.72;3.53;;;;;;;;;;5016190;28;20033;-73
2023/08/28 13:26:28;;;;;;;3.70;3.50;;;;;;;;;;5016478;28;20385;-73
2023/08/28 13:28:55;;;;;;;4.28;3.75;;;;;;;;;;4998417;28;20034;-73
2023/08/28 13:31:20;;;;;;;5.03;3.38;;;;;;;;;;4997658;28;20461;-73
2023/08/28 13:33:48;;;;;;;3.78;3.47;;;;;;;;;;5015726;28;20037;-73
2023/08/28 13:36:14;;;;;;;4.38;3.53;;;;;;;;;;5016023;28;20120;-73
2023/08/28 13:38:39;;;;;;;3.55;3.25;;;;;;;;;;5015957;28;20076;-72
2023/08/28 13:41:06;;;;;;;3.15;2.95;;;;;;;;;;5016430;28;20030;-73
2023/08/28 13:43:31;;;;;;;3.65;3.38;;;;;;;;;;5015884;28;20038;-73
2023/08/28 13:45:57;;;;;;;7.90;3.58;;;;;;;;;;5015551;28;20092;-72
2023/08/28 13:48:22;;;;;;;4.07;3.40;;;;;;;;;;5015430;28;20092;-73
2023/08/28 13:50:51;;;;;;;4.80;3.58;;;;;;;;;;5053432;28;20029;-73
2023/08/28 13:53:19;;;;;;;3.88;3.50;;;;;;;;;;5054205;28;20027;-72
2023/08/28 13:55:48;;;;;;;3.85;3.33;;;;;;;;;;5035866;28;20504;-73
2023/08/28 13:58:14;;;;;;;3.42;3.13;;;;;;;;;;5054759;28;20079;-73
2023/08/28 14:00:40;;;;;;;3.63;3.33;;;;;;;;;;5035843;28;20036;-73
2023/08/28 14:03:06;;;;;;;3.55;3.05;;;;;;;;;;5035591;28;20036;-73
2023/08/28 14:05:31;;;;;;;3.38;3.17;;;;;;;;;;5053994;28;20505;-73
2023/08/28 14:07:57;;;;;;;3.65;3.22;;;;;;;;;;5054809;28;20025;-73
2023/08/28 14:10:22;;;;;;;3.20;3.00;;;;;;;;;;5054217;28;20032;-72
2023/08/28 14:12:48;;;;;;;3.30;3.10;;;;;;;;;;5054292;28;20036;-73
2023/08/28 14:15:13;;;;;;;3.13;2.92;;;;;;;;;;5054326;28;20032;-73
2023/08/28 14:17:40;;;;;;;3.05;2.83;;;;;;;;;;5035931;28;20025;-73
2023/08/28 14:20:06;;;;;;;3.20;3.00;;;;;;;;;;5036427;28;20075;-73
2023/08/28 14:22:31;;;;;;;3.17;2.97;;;;;;;;;;5054288;28;20449;-73
2023/08/28 14:24:57;;;;;;;3.30;3.00;;;;;;;;;;5054348;28;20112;-73
2023/08/28 14:27:22;;;;;;;3.13;2.67;;;;;;;;;;5036149;28;20029;-73
2023/08/28 14:29:47;;;;;;;3.80;3.00;;;;;;;;;;5053236;28;20035;-73
2023/08/28 14:32:14;;;;;;;3.20;2.90;;;;;;;;;;5053881;28;20036;-73
2023/08/28 14:34:40;;;;;;;3.00;2.80;;;;;;;;;;5052435;28;20486;-73
2023/08/28 14:37:06;;;;;;;3.08;2.80;;;;;;;;;;5034867;28;20541;-72
2023/08/28 14:39:31;;;;;;;3.72;2.90;;;;;;;;;;5035182;28;20033;-73
2023/08/28 14:41:57;;;;;;;2.80;2.53;;;;;;;;;;5034110;28;20025;-73